Terminal Aerodrome Forecast
Issued by NWS

Home | Current Version | Previous Version | Text Only | Print | Product List | Glossary On
Versions: 1 2 3 4 5 6 7 8 9 10 11 12
000
FTUS45 KFGZ 312329
TAFGCN
TAF
KGCN 312329Z 0100/0124 VRB05KT P6SM FEW070 SCT120
     FM010200 VRB04KT P6SM SCT100
     FM011800 23007KT P6SM SCT070 BKN100
      TEMPO 0119/0123 VRB10G20KT 5SM -TSRA BKN060CB=

USA.gov is the U.S. government's official web portal to all federal, state and local government web resources and services.